Fire Weather Observation
Issued by NWS Grand Junction, CO

Home | Current Version | Previous Version | Graphics & Text | Print | Product List | Glossary On
Versions: 1 2 3 4 5 6 7 8 9 10 11 12 13 14 15 16 17 18 19 20 21 22 23 24 25 26 27 28 29 30 31 32 33 34 35
000
SHUS65 KGJT 172016
FWOGJT

DAILY FIRE WEATHER OBSERVATION
NATIONAL WEATHER SERVICE GRAND JUNCTION CO
212 PM MDT THU MAY 17 2018

STATE OF THE WEATHER (W)               1
DRY BULB TEMPERATURE                   82   DEGREES FAHRENHEIT
RELATIVE HUMIDITY (RH)                 10   PERCENT
LIGHTNING ACTIVITY LEVEL
  (LAL - MIDNIGHT TO 2 PM)             1
WIND DIRECTION                         315  DEGREES (C IF CALM)
WIND SPEED                             10   MPH
MAX TEMP (2 PM - 2 PM)                 86   DEGREES FAHRENHEIT
MIN TEMP (2 PM - 2 PM)                 50   DEGREES FAHRENHEIT
MAX RH (2 PM - 2 PM)                   27   PERCENT
MIN RH (2 PM - 2 PM)                   8    PERCENT
PCPN DURATION                          0.0  HOURS
PCPN AMT (2 PM - 2 PM)                 0.00 INCHES
LAL (2 PM - 2 PM)                      1

$$

METAR KGJT 171953Z 32009G17KT 10SM CLR 28/M07 A2985 RMK AO2
      SLP043 T02781067



USA.gov is the U.S. government's official web portal to all federal, state and local government web resources and services.